Participated 1 time
in 1930
Leonida Frascarelli, Italy
Tour de France 2026 starts from Barcelona, Spain in

Stats and Facts from
Tour de France.

2026   2025   2024   2023  2022  2021  2020  2019   2018  2017   2016   2015  2014  2013   2012   2011  2010   2009   2008   2007   2006   2005   2004   2003   2002   2001   2000   1999   1998   1997  1996   1995   1994   1993   1992  1991   1990   1989   1988   1987   1986   1985   1984   1983  1982  1981   1980   1979  1978  1977   1976  1975  1974  1973   1972   1971   1970  1969   1968   1967   1966   1965  1964  1963   1962   1961   1960   1959   1958   1957  1956   1955   1954   1953   1952  1951  1950  1949   1948  1947  1939   1938   1937   1936   1935   1934   1933  1932   1931   1930  1929   1928   1927   1926  1925  1924  1923   1922   1921   1920   1919  1914   1913   1912   1911   1910  1909   1908   1907   1906  1905  1904   1903 

Tourstats
Sitemap

After stage 21 - 2025:
 16451 starters.
  5463 different riders.
  689 teams.
  2398 stages.
  470 restdays.
  466506.50 km.
  5925 abandoned riders.

Click map for 1947 route.
Facts from Tour de France 1947 Additional info and images from 1947.
  |   Stages.  |   Stage winners.  |   Days in jerseys.  |   Teams.  |   All riders.  |   All riders by age.  |   All riders from.  |  

  |   Rookies.  |   Withdrawls.  |   Average speed.  |   GC.  |   Polka  |   Green  |   White  |   Summits. (In tour)  |   Miscellaneous.  |  

Stage 2 on June 26th. 1947
Pick a stage:  1  2  3  4  5  6  7  8  9  10  11  12  13  14  15  16  17  18  19  20  21  

After stage 2:    René Vietto  
  LilleBruxelles | Dist: 182.00km. | Winner: René Vietto

Podium

Average speed for all riders in stage:  33,743 km./hr.

1
 René Vietto  France05h 05' 52"=35,702  km/h

2
 Raymond Impanis  Belgium05h 07' 33"+  00:01:41 =35,506  km/h

3
 Prosper Depredomme  Belgium05h 07' 33"+  00:01:41 =35,506  km/h

4  Fermo Camellini  Holland-Etrangers De France05h 14' 51"+  00:08:59 =34,683  km/h

5  Aldo Ronconi  Italy05h 14' 51"+  00:08:59 =34,683  km/h

6  Jean Breuer  Belgium05h 14' 51"+  00:08:59 =34,683  km/h

7  Pierre Cogan  Ouest05h 14' 51"+  00:08:59 =34,683  km/h

8  Andre Mahé  Ouest05h 14' 51"+  00:08:59 =34,683  km/h

9  Pierre Brambilla  Italy05h 14' 51"+  00:08:59 =34,683  km/h

10  Manuel Huguet  France05h 15' 04"+  00:09:12 =34,659  km/h

11  Albert Bourlon  Centre-Sud Ouest05h 15' 04"+  00:09:12 =34,659  km/h

12  Elio Bertocchi  Italy05h 15' 17"+  00:09:25 =34,636  km/h

13  Roger Ghyselinck  Belgium05h 16' 13"+  00:10:21 =34,533  km/h

14  Briek Schotte  Belgium05h 16' 35"+  00:10:43 =34,493  km/h

15  Arie Vooren  Holland-Etrangers De France05h 16' 35"+  00:10:43 =34,493  km/h

16  Jean Robic  Ouest05h 16' 35"+  00:10:43 =34,493  km/h

17  Giovanni Corrieri  Italy05h 17' 09"+  00:11:17 =34,432  km/h

18  Roger Leveque  Centre-Sud Ouest05h 17' 09"+  00:11:17 =34,432  km/h

19  Bernard Gauthier  Sud Est05h 17' 09"+  00:11:17 =34,432  km/h

20  Gottfried Weilenmann  Switzerland-Luxembourg05h 17' 09"+  00:11:17 =34,432  km/h

21  Raymond Lucas  Île-de-France05h 17' 09"+  00:11:17 =34,432  km/h

22  Alexandre Pawlisiak  Nord Est05h 17' 09"+  00:11:17 =34,432  km/h

23  Giuseppe Tacca  Italy05h 17' 09"+  00:11:17 =34,432  km/h

24  Édouard Fachleitner  France05h 17' 09"+  00:11:17 =34,432  km/h

25  Jean-Apotre Lazarides  Sud Est05h 19' 20"+  00:13:28 =34,196  km/h

26  Lucien Teisseire  France05h 19' 20"+  00:13:28 =34,196  km/h

27  Leo Weilenmann  Switzerland-Luxembourg05h 19' 20"+  00:13:28 =34,196  km/h

28  Jean Goldschmit  Switzerland-Luxembourg05h 19' 20"+  00:13:28 =34,196  km/h

29  Jefke Janssen  Holland-Etrangers De France05h 19' 20"+  00:13:28 =34,196  km/h

30  René Barret  Île-de-France05h 19' 20"+  00:13:28 =34,196  km/h

31  Daniel Thuayre  Île-de-France05h 19' 20"+  00:13:28 =34,196  km/h

32  Roger Pontet  Ouest05h 19' 20"+  00:13:28 =34,196  km/h

33  Raphaël Geminiani  Centre-Sud Ouest05h 19' 20"+  00:13:28 =34,196  km/h

34  Ange Le Strat  Ouest05h 19' 20"+  00:13:28 =34,196  km/h

35  Albert Van Schendel  Holland-Etrangers De France05h 19' 20"+  00:13:28 =34,196  km/h

36  Bouk Schellingerhoudt  Holland-Etrangers De France05h 19' 20"+  00:13:28 =34,196  km/h

37  Ferdi Kubler  Switzerland-Luxembourg05h 19' 58"+  00:14:06 =34,129  km/h

38  Pietro Tarchini  Switzerland-Luxembourg05h 22' 20"+  00:16:28 =33,878  km/h

39  Jean De Gribaldy  Nord Est05h 22' 20"+  00:16:28 =33,878  km/h

40  Kléber Piot  France05h 22' 20"+  00:16:28 =33,878  km/h

41  Giordano Cottur  Italy05h 22' 20"+  00:16:28 =33,878  km/h

42  Vincenzo Rossello  Italy05h 22' 20"+  00:16:28 =33,878  km/h

43  Antoine Latorre  Centre-Sud Ouest05h 22' 20"+  00:16:28 =33,878  km/h

44  Primo Volpi  Italy05h 22' 20"+  00:16:28 =33,878  km/h

45  Emile Idée  France05h 22' 20"+  00:16:28 =33,878  km/h

46  Pascal Gnazzo  Sud Est05h 22' 20"+  00:16:28 =33,878  km/h

47  Egidio Feruglio  Italy05h 22' 20"+  00:16:28 =33,878  km/h

48  Victor Pernac  Sud Est05h 25' 41"+  00:19:49 =33,530  km/h

49  Edouard Muller  Île-de-France05h 25' 41"+  00:19:49 =33,530  km/h

50  Jean Diederich  Switzerland-Luxembourg05h 25' 41"+  00:19:49 =33,530  km/h

51  Olimpio Bizzi  Italy05h 25' 41"+  00:19:49 =33,530  km/h

52  Paul Maye  Île-de-France05h 25' 41"+  00:19:49 =33,530  km/h

53  Raoul Remy  Sud Est05h 25' 41"+  00:19:49 =33,530  km/h

54  Maurice Diot  Île-de-France05h 25' 41"+  00:19:49 =33,530  km/h

55  Paul Giguet  Sud Est05h 25' 41"+  00:19:49 =33,530  km/h

56  Jean-Marie Goasmat  Ouest05h 25' 41"+  00:19:49 =33,530  km/h

57  Huub Sijen  Holland-Etrangers De France05h 25' 41"+  00:19:49 =33,530  km/h

58  Robert Bonnaventure  Île-de-France05h 25' 41"+  00:19:49 =33,530  km/h

59  Henri Massal  France05h 25' 41"+  00:19:49 =33,530  km/h

60  Victor Cosson  Île-de-France05h 25' 41"+  00:19:49 =33,530  km/h

61  Joseph Dessertine  Centre-Sud Ouest05h 25' 41"+  00:19:49 =33,530  km/h

62  René Oreel  Belgium05h 25' 41"+  00:19:49 =33,530  km/h

63  Alphonse De Vreese  Nord Est05h 25' 41"+  00:19:49 =33,530  km/h

64  Camille Danguillaume  Centre-Sud Ouest05h 25' 41"+  00:19:49 =33,530  km/h

65  Louison Bobet  France05h 25' 41"+  00:19:49 =33,530  km/h

66  Eugenio Galliussi  Holland-Etrangers De France05h 25' 41"+  00:19:49 =33,530  km/h

67  Maurice Mollin  Belgium05h 25' 41"+  00:19:49 =33,530  km/h

68  Louis Gauthier  Nord Est05h 25' 41"+  00:19:49 =33,530  km/h

69  Jean Kirchen  Switzerland-Luxembourg05h 25' 41"+  00:19:49 =33,530  km/h

70  Yves Pierracci  Centre-Sud Ouest05h 25' 41"+  00:19:49 =33,530  km/h

71  Norbert Callens  Belgium05h 25' 41"+  00:19:49 =33,530  km/h

72  Victor Joly  Holland-Etrangers De France05h 25' 41"+  00:19:49 =33,530  km/h

73  Marius Bonnet  Sud Est05h 25' 41"+  00:19:49 =33,530  km/h

74  Gaston Rousseau  Ouest05h 30' 20"+  00:24:28 =33,058  km/h

75  Eloi Tassin  Ouest05h 30' 20"+  00:24:28 =33,058  km/h

76  Ahmed Chibane  Sud Est05h 32' 45"+  00:26:53 =32,817  km/h

77  Albert Sercu  Belgium05h 33' 12"+  00:27:20 =32,773  km/h

78  Louis Deprez  Nord Est05h 33' 12"+  00:27:20 =32,773  km/h

79  Joseph Neri  Centre-Sud Ouest05h 33' 12"+  00:27:20 =32,773  km/h

80  Louis Bocquet  Ouest05h 33' 30"+  00:27:38 =32,744  km/h

81  Alfred Macorig  Centre-Sud Ouest05h 33' 30"+  00:27:38 =32,744  km/h

82  Florent Mathieu  Belgium05h 36' 40"+  00:30:48 =32,436  km/h

83  Pierre Fautrier  Sud Est05h 36' 40"+  00:30:48 =32,436  km/h

84  Paul Neri  Sud Est05h 36' 40"+  00:30:48 =32,436  km/h

85  Gaston Audier  Nord Est05h 39' 05"+  00:33:13 =32,204  km/h

86  Edouard Klabinski  Holland-Etrangers De France05h 39' 38"+  00:33:46 =32,152  km/h

87  André De Korver  Holland-Etrangers De France05h 39' 38"+  00:33:46 =32,152  km/h

88  Jean-Baptiste Delille  Nord Est05h 39' 38"+  00:33:46 =32,152  km/h

89  Léo Amberg  Switzerland-Luxembourg06h 12' 20"+  01:06:28 =29,329  km/h


Withdrawls: 10
 RiderTeamReason
37   Henri Ackermann Switzerland-LuxembourgDid not finish
56   Robert Charpentier Île-de-FranceDid not finish
33   Robert Lang Switzerland-LuxembourgDisqualified
42   Louis Caput FranceDisqualified
53   Urbain Caffi Île-de-FranceDisqualified
64   Raymond Guegan OuestDisqualified
73   Maurice De Muer Nord EstDisqualified
76   Robert Dorgebray Nord EstDisqualified
80   Georges Martin Nord EstDisqualified
81   Joseph Berrini Centre-Sud OuestDisqualified
Todays birthdays.

1869 • Adolphe Dorion
1884 • Achille Germain
1886 • Emile Eigeldinger
1896 • Andre Léger
1907 • Frans Dictus
1921 • Alberto Ghirardi
1934 • Joseph Planckaert
1945 • Leif Mortensen
1952 • Alex Van Linden
1960 • Roberto Bressan
1960 • Bernard Chesneau
1962 • Paul Watson
1963 • Juan Rozas
1965 • Jean-Pierre Heynderickx
1967 • José-Manuel Oliveira
1970 • Wilfried Nelissen
1980 • Nick Nuyens
1996 • Jai Hindley

 

Optimized for Chrome - Edge
and Opera browsers.